createdAt,value
2022-09-26T00:01:56.219Z,1.57
2022-09-26T00:07:18.596Z,1.47
2022-09-26T00:12:40.226Z,1.03
2022-09-26T00:18:01.908Z,1.07
2022-09-26T00:23:24.321Z,1.37
2022-09-26T00:28:46.581Z,0.90
2022-09-26T00:34:10.446Z,1.10
2022-09-26T00:39:32.818Z,2.10
2022-09-26T00:44:56.030Z,1.30
2022-09-26T00:50:20.693Z,1.63
2022-09-26T00:55:45.942Z,1.07
2022-09-26T01:01:08.619Z,1.63
2022-09-26T01:06:30.544Z,1.50
2022-09-26T01:11:53.197Z,1.10
2022-09-26T01:17:15.173Z,1.10
2022-09-26T01:23:03.694Z,1.17
2022-09-26T01:28:38.651Z,1.23
2022-09-26T01:34:04.014Z,1.67
2022-09-26T01:39:39.357Z,0.90
2022-09-26T01:45:05.477Z,1.20
2022-09-26T01:50:34.680Z,1.20
2022-09-26T01:55:59.784Z,1.63
2022-09-26T02:01:23.193Z,1.17
2022-09-26T02:06:49.857Z,1.40
2022-09-26T02:12:14.667Z,1.10
2022-09-26T02:17:40.317Z,1.00
2022-09-26T02:23:03.441Z,1.27
2022-09-26T02:28:25.134Z,1.47
2022-09-26T02:33:47.308Z,1.30
2022-09-26T02:39:10.554Z,1.13
2022-09-26T02:44:50.209Z,0.93
2022-09-26T02:50:24.354Z,1.90
2022-09-26T02:55:52.074Z,1.37
2022-09-26T03:01:17.926Z,1.60
2022-09-26T03:06:44.675Z,1.27
2022-09-26T03:12:09.227Z,1.60
2022-09-26T03:17:33.551Z,1.20
2022-09-26T03:22:55.637Z,1.33
2022-09-26T03:28:18.984Z,2.07
2022-09-26T03:33:40.829Z,1.63
2022-09-26T03:39:02.882Z,1.30
2022-09-26T03:44:31.593Z,1.40
2022-09-26T03:49:59.342Z,1.27
2022-09-26T03:55:21.259Z,3.03
2022-09-26T04:00:43.682Z,1.57
2022-09-26T04:06:08.084Z,1.17
2022-09-26T04:11:29.770Z,1.10
2022-09-26T04:16:52.740Z,1.43
2022-09-26T04:22:21.454Z,0.90
2022-09-26T04:27:43.236Z,1.03
2022-09-26T04:33:05.898Z,1.10
2022-09-26T04:38:32.560Z,1.40
2022-09-26T04:43:55.394Z,1.37
2022-09-26T04:49:17.863Z,1.40
2022-09-26T04:54:39.507Z,1.27
2022-09-26T05:00:01.727Z,1.20
2022-09-26T05:05:24.295Z,1.50
2022-09-26T05:10:51.836Z,1.27
2022-09-26T05:16:13.962Z,1.77
2022-09-26T05:21:36.686Z,1.20
2022-09-26T05:26:59.488Z,1.30
2022-09-26T05:32:21.520Z,2.30
2022-09-26T05:37:46.163Z,1.63
2022-09-26T05:43:07.903Z,1.33
2022-09-26T05:48:31.551Z,2.13
2022-09-26T05:53:54.039Z,1.67
2022-09-26T05:59:18.451Z,1.87
2022-09-26T06:05:03.232Z,1.37
2022-09-26T06:10:44.055Z,1.73
2022-09-26T06:16:08.034Z,1.80
2022-09-26T06:21:29.711Z,2.07
2022-09-26T06:26:58.978Z,1.50
2022-09-26T06:32:20.638Z,1.83
2022-09-26T06:37:55.530Z,1.80
2022-09-26T06:43:18.125Z,1.80
2022-09-26T06:49:08.812Z,1.40
2022-09-26T06:54:41.966Z,1.13
2022-09-26T07:00:04.956Z,1.60
2022-09-26T07:05:46.110Z,1.93
2022-09-26T07:11:31.183Z,1.67
2022-09-26T07:16:52.043Z,1.63
2022-09-26T07:22:38.093Z,1.57
2022-09-26T07:28:01.087Z,1.67
2022-09-26T07:33:50.051Z,1.60
2022-09-26T07:39:11.965Z,1.87
2022-09-26T07:50:18.529Z,2.10
2022-09-26T07:56:09.536Z,2.10
2022-09-26T08:02:06.537Z,1.63
2022-09-26T08:07:33.228Z,2.63
2022-09-26T08:13:08.894Z,2.70
2022-09-26T08:18:47.630Z,2.40
2022-09-26T08:24:10.456Z,3.73
2022-09-26T08:29:32.142Z,2.73
2022-09-26T08:34:54.416Z,1.93
2022-09-26T08:40:39.926Z,2.50
2022-09-26T08:46:43.184Z,3.87
2022-09-26T08:52:31.240Z,2.53
2022-09-26T08:57:55.492Z,2.50
2022-09-26T09:03:25.119Z,2.90
2022-09-26T09:08:50.162Z,3.60
2022-09-26T09:15:23.580Z,3.77
2022-09-26T09:21:07.381Z,3.30
2022-09-26T09:32:46.944Z,3.37
2022-09-26T09:38:16.596Z,2.73
2022-09-26T09:44:05.120Z,3.70
2022-09-26T09:49:27.631Z,5.07
2022-09-26T09:54:59.263Z,2.63
2022-09-26T10:00:21.831Z,2.90
2022-09-26T10:06:04.392Z,2.33
2022-09-26T10:11:40.989Z,3.10
2022-09-26T10:17:23.203Z,2.77
2022-09-26T10:22:54.330Z,2.43
2022-09-26T10:28:31.155Z,2.07
2022-09-26T10:33:58.029Z,3.23
2022-09-26T10:39:40.484Z,2.97
2022-09-26T10:45:11.480Z,2.17
2022-09-26T10:51:01.079Z,2.37
2022-09-26T10:56:35.748Z,2.23
2022-09-26T11:01:58.492Z,2.10
2022-09-26T11:07:24.137Z,2.93
2022-09-26T11:12:57.727Z,3.27
2022-09-26T11:18:26.300Z,2.50
2022-09-26T11:23:55.976Z,2.73
2022-09-26T11:29:23.460Z,2.67
2022-09-26T11:35:02.270Z,2.17
2022-09-26T11:40:38.247Z,2.33
2022-09-26T11:46:15.285Z,2.10
2022-09-26T11:52:02.253Z,2.77
2022-09-26T11:57:37.042Z,2.90
2022-09-26T12:03:36.748Z,3.10
2022-09-26T12:09:15.833Z,2.53
2022-09-26T12:14:44.617Z,2.73
2022-09-26T12:20:17.511Z,2.10
2022-09-26T12:25:48.764Z,2.70
2022-09-26T12:31:19.719Z,2.80
2022-09-26T12:36:54.481Z,1.77
2022-09-26T12:42:28.266Z,2.20
2022-09-26T12:48:09.066Z,2.60
2022-09-26T12:53:41.499Z,3.80
2022-09-26T12:59:16.976Z,2.73
2022-09-26T13:05:15.163Z,3.23
2022-09-26T13:10:50.917Z,3.20
2022-09-26T13:16:20.186Z,3.00
2022-09-26T13:21:45.644Z,3.17
2022-09-26T13:27:12.259Z,3.10
2022-09-26T13:32:48.385Z,3.77
2022-09-26T13:38:27.764Z,2.90
2022-09-26T13:44:00.781Z,2.77
2022-09-26T13:49:31.142Z,1.90
2022-09-26T13:54:56.464Z,1.87
2022-09-26T14:00:39.764Z,2.53
2022-09-26T14:06:31.501Z,2.40
2022-09-26T14:12:31.794Z,2.80
2022-09-26T14:18:13.188Z,2.50
2022-09-26T14:23:40.672Z,5.97
2022-09-26T14:29:24.426Z,2.90
2022-09-26T14:34:48.599Z,2.40
2022-09-26T14:40:21.817Z,2.17
2022-09-26T14:45:49.022Z,2.40
2022-09-26T14:51:26.178Z,1.27
2022-09-26T14:56:49.342Z,1.50
2022-09-26T15:02:33.575Z,1.37
2022-09-26T15:07:59.530Z,1.67
2022-09-26T15:13:26.633Z,1.53
2022-09-26T15:18:51.270Z,2.20
2022-09-26T15:24:24.312Z,1.50
2022-09-26T15:29:49.853Z,2.43
2022-09-26T15:35:13.121Z,3.00
2022-09-26T15:40:35.802Z,2.03
2022-09-26T15:45:59.091Z,2.43
2022-09-26T15:51:23.351Z,3.00
2022-09-26T15:56:47.303Z,2.00
2022-09-26T16:02:20.081Z,1.93
2022-09-26T16:07:47.184Z,3.23
2022-09-26T16:13:23.209Z,2.30
2022-09-26T16:18:46.895Z,1.13
2022-09-26T16:24:28.435Z,1.73
2022-09-26T16:29:51.576Z,1.60
2022-09-26T16:35:16.826Z,1.20
2022-09-26T16:40:38.583Z,1.53
2022-09-26T16:46:08.845Z,2.13
2022-09-26T16:51:34.298Z,1.70
2022-09-26T16:56:57.994Z,2.27
2022-09-26T17:02:25.937Z,2.27
2022-09-26T17:07:48.827Z,2.37
2022-09-26T17:13:14.429Z,2.10
2022-09-26T17:18:37.053Z,1.63
2022-09-26T17:23:58.734Z,2.63
2022-09-26T17:29:24.089Z,3.10
2022-09-26T17:34:47.774Z,1.67
2022-09-26T17:40:13.369Z,1.17
2022-09-26T17:45:39.520Z,0.80
2022-09-26T17:51:04.105Z,1.17
2022-09-26T17:56:25.897Z,0.80
2022-09-26T18:01:50.285Z,1.03
2022-09-26T18:07:14.594Z,0.97
2022-09-26T18:12:36.216Z,0.73
2022-09-26T18:17:59.546Z,1.13
2022-09-26T18:23:23.829Z,1.67
2022-09-26T18:28:45.538Z,2.23
2022-09-26T18:34:12.529Z,1.60
2022-09-26T18:39:36.018Z,0.93
2022-09-26T18:45:00.662Z,1.77
2022-09-26T18:50:25.763Z,1.13
2022-09-26T18:56:06.340Z,1.73
2022-09-26T19:01:29.954Z,1.73
2022-09-26T19:06:58.166Z,1.87
2022-09-26T19:12:20.448Z,1.60
2022-09-26T19:17:42.626Z,1.90
2022-09-26T19:23:04.238Z,1.23
2022-09-26T19:28:27.767Z,1.23
2022-09-26T19:33:49.929Z,1.30
2022-09-26T19:39:12.375Z,1.30
2022-09-26T19:44:35.320Z,2.07
2022-09-26T19:49:57.050Z,2.10
2022-09-26T19:55:20.848Z,1.70
2022-09-26T20:00:43.971Z,1.37
2022-09-26T20:06:11.478Z,2.10
2022-09-26T20:11:33.102Z,1.40
2022-09-26T20:16:57.680Z,1.93
2022-09-26T20:22:21.174Z,1.27
2022-09-26T20:27:43.113Z,1.33
2022-09-26T20:33:05.714Z,0.90
2022-09-26T20:38:30.048Z,1.10
2022-09-26T20:43:56.101Z,1.90
2022-09-26T20:49:20.858Z,0.80
2022-09-26T20:54:42.492Z,0.67
2022-09-26T21:00:04.771Z,1.13
2022-09-26T21:05:27.115Z,0.93
2022-09-26T21:10:48.690Z,1.50
2022-09-26T21:16:12.620Z,1.67
2022-09-26T21:21:34.900Z,1.17
2022-09-26T21:27:11.261Z,0.87
2022-09-26T21:32:33.219Z,0.80
2022-09-26T21:37:56.370Z,1.03
2022-09-26T21:43:20.273Z,0.87
2022-09-26T21:48:42.632Z,0.63
2022-09-26T21:54:06.877Z,0.80
2022-09-26T21:59:29.364Z,0.80
2022-09-26T22:04:51.714Z,1.23
2022-09-26T22:10:14.895Z,1.00
2022-09-26T22:15:36.591Z,0.73
2022-09-26T22:20:58.324Z,0.50
2022-09-26T22:26:20.689Z,0.80
2022-09-26T22:31:42.591Z,1.60
2022-09-26T22:37:04.410Z,0.83
2022-09-26T22:42:26.716Z,0.83
2022-09-26T22:47:48.350Z,1.10
2022-09-26T22:53:10.109Z,0.50
2022-09-26T22:58:35.809Z,0.73
2022-09-26T23:03:57.935Z,0.60
2022-09-26T23:09:19.556Z,0.23
2022-09-26T23:14:41.915Z,0.73
2022-09-26T23:20:04.255Z,0.40
2022-09-26T23:25:25.912Z,0.60
2022-09-26T23:30:49.519Z,0.57
2022-09-26T23:36:11.774Z,0.43
2022-09-26T23:41:33.429Z,0.43
2022-09-26T23:46:55.678Z,0.50
2022-09-26T23:52:17.434Z,0.60
2022-09-26T23:57:39.111Z,1.47
